ROMMA est une association bénévole à but non lucratif. Votre soutien est indispensable : ADHERER à ROMMA ou FAIRE un DON

Chélieu - (38, Isère)

Terres Froides (550 m)   Longitude: 5° 28' 48.00" E   Latitude: 45° 31' 02.39"N Station partenaire n°44
 

Détail journalier du     <<     >>

Température Precipitation Humidité Pression Vent Dir Rafale Dir. rafale
Heure (°C) (mm) (%) (hPa) (km/h) (km/h)
01:00 8.81.590101715N37N
02:00 8.708910179N18N
03:00 8.60.39010179N16N
04:00 8.709110179NNE19N
05:00 8.0092101611N18NNO
06:00 7.7093101611N19ONO
07:00 7.8093101713NNO23NNO
08:00 8.0094101811N19N
09:00 8.4094101812N19N
10:00 9.5093101810N21NNO
11:00 10.4089101913N21NNO
12:00 11.4083102015N24NNO
13:00 12.4083101912N23NE
14:00 11.9082101912N29NNO
15:00 13.9077101917N29N
16:00 14.1076101916N27N
17:00 13.4076101919N32N
18:00 12.6077101919N31N
19:00 10.8082102016N27N
20:00 9.8086102011NNO21N
21:00 9.4087102010NO19NNO
22:00 8.408910216NO16NNO
23:00 8.109010215NO11NO
minuit 7.909010216NO15NNO

Graphique du 07-10-2019

 

Serveur OMMA